Time;durP1;ratioP1;P1;durP2;ratioP2;P2;SDS_P1;SDS_P2;PMS_P1;PMS_P2;Temp;Humidity;BMP_temperature;BMP_pressure;BME280_temperature;BME280_humidity;BME280_pressure;Samples;Min_cycle;Max_cycle;Signal;HPM_P1;HPM_P2
2021/12/03 00:01:45;;;;;;;36.85;23.77;;;;;;;;;;5085488;28;20185;-78
2021/12/03 00:04:13;;;;;;;34.97;22.20;;;;;;;;;;5087114;28;20194;-78
2021/12/03 00:06:41;;;;;;;35.95;22.45;;;;;;;;;;5087143;28;20218;-78
2021/12/03 00:09:09;;;;;;;36.70;23.38;;;;;;;;;;5073480;28;20549;-76
2021/12/03 00:11:36;;;;;;;38.72;22.92;;;;;;;;;;5080793;28;20605;-78
2021/12/03 00:14:03;;;;;;;33.58;23.35;;;;;;;;;;5088077;28;20193;-80
2021/12/03 00:16:31;;;;;;;34.30;23.55;;;;;;;;;;5079208;28;20200;-76
2021/12/03 00:18:58;;;;;;;37.08;21.98;;;;;;;;;;5085589;28;20302;-74
2021/12/03 00:21:27;;;;;;;37.33;23.45;;;;;;;;;;5089098;28;20196;-76
2021/12/03 00:23:54;;;;;;;38.70;24.95;;;;;;;;;;5091001;28;20879;-77
2021/12/03 00:26:22;;;;;;;37.85;24.10;;;;;;;;;;5088829;28;20205;-77
2021/12/03 00:28:49;;;;;;;39.75;24.83;;;;;;;;;;5085653;28;20225;-77
2021/12/03 00:31:17;;;;;;;39.08;24.73;;;;;;;;;;5082391;28;20569;-75
2021/12/03 00:33:44;;;;;;;32.78;23.13;;;;;;;;;;5086664;28;20193;-74
2021/12/03 00:36:12;;;;;;;35.45;23.05;;;;;;;;;;5085576;28;20512;-76
2021/12/03 00:38:43;;;;;;;34.65;23.35;;;;;;;;;;5086828;28;20305;-76
2021/12/03 00:41:13;;;;;;;38.60;23.30;;;;;;;;;;5089680;28;20201;-74
2021/12/03 00:43:43;;;;;;;36.90;24.33;;;;;;;;;;5091260;28;20200;-77
2021/12/03 00:46:14;;;;;;;37.33;24.48;;;;;;;;;;5082551;28;20568;-76
2021/12/03 00:48:41;;;;;;;33.60;21.55;;;;;;;;;;5083725;28;20634;-78
2021/12/03 00:51:09;;;;;;;41.85;25.00;;;;;;;;;;5088117;28;20196;-79
2021/12/03 00:53:38;;;;;;;41.83;26.02;;;;;;;;;;5085406;28;20193;-76
2021/12/03 00:56:07;;;;;;;39.67;25.05;;;;;;;;;;5070165;28;20198;-77
2021/12/03 00:58:34;;;;;;;41.33;25.20;;;;;;;;;;5070896;28;20221;-81
2021/12/03 01:01:02;;;;;;;36.90;24.13;;;;;;;;;;5030383;28;20537;-79
2021/12/03 01:03:29;;;;;;;40.67;24.77;;;;;;;;;;5040842;28;20727;-75
2021/12/03 01:05:56;;;;;;;41.20;23.88;;;;;;;;;;5043211;28;20674;-75
2021/12/03 01:08:24;;;;;;;37.13;24.27;;;;;;;;;;5041744;28;20909;-75
2021/12/03 01:10:51;;;;;;;35.17;22.17;;;;;;;;;;5033309;28;20277;-81
2021/12/03 01:13:19;;;;;;;36.60;23.35;;;;;;;;;;5045156;28;20652;-80
2021/12/03 01:15:47;;;;;;;40.67;24.63;;;;;;;;;;5049943;28;20548;-79
2021/12/03 01:18:14;;;;;;;34.13;23.20;;;;;;;;;;5035120;28;20326;-74
2021/12/03 01:20:42;;;;;;;30.63;21.50;;;;;;;;;;5031146;28;20666;-77
2021/12/03 01:23:11;;;;;;;33.70;22.73;;;;;;;;;;5031069;28;20199;-78
2021/12/03 01:25:38;;;;;;;30.95;22.20;;;;;;;;;;5042150;28;20190;-75
2021/12/03 01:28:06;;;;;;;31.67;21.67;;;;;;;;;;5044842;28;20696;-74
2021/12/03 01:30:35;;;;;;;33.15;21.50;;;;;;;;;;5049614;28;20201;-74
2021/12/03 01:33:05;;;;;;;33.15;21.35;;;;;;;;;;5048381;28;20544;-80
2021/12/03 01:35:32;;;;;;;30.42;19.05;;;;;;;;;;5049547;28;20198;-73
2021/12/03 01:37:59;;;;;;;30.30;20.58;;;;;;;;;;5048723;28;20597;-80
2021/12/03 01:40:28;;;;;;;29.80;21.25;;;;;;;;;;5039017;28;20202;-79
2021/12/03 01:42:56;;;;;;;32.33;20.13;;;;;;;;;;5051420;28;20240;-76
2021/12/03 01:45:24;;;;;;;35.92;21.73;;;;;;;;;;5049452;28;20662;-79
2021/12/03 01:47:53;;;;;;;28.20;19.55;;;;;;;;;;5047165;28;20689;-78
2021/12/03 01:50:24;;;;;;;29.48;17.98;;;;;;;;;;5044074;28;20540;-76
2021/12/03 01:52:51;;;;;;;29.50;20.80;;;;;;;;;;5046043;28;20198;-77
2021/12/03 01:55:18;;;;;;;33.25;19.55;;;;;;;;;;5048563;28;20195;-79
2021/12/03 01:57:46;;;;;;;30.05;19.65;;;;;;;;;;5048799;28;20214;-74
2021/12/03 02:00:15;;;;;;;31.65;19.65;;;;;;;;;;5058676;28;20308;-77
2021/12/03 02:02:42;;;;;;;30.15;19.15;;;;;;;;;;5069951;28;20201;-79
2021/12/03 02:05:11;;;;;;;30.70;20.90;;;;;;;;;;5069768;28;20193;-77
2021/12/03 02:07:38;;;;;;;30.42;19.52;;;;;;;;;;5080922;28;20225;-78
2021/12/03 02:10:09;;;;;;;31.90;20.58;;;;;;;;;;5083225;28;20205;-75
2021/12/03 02:12:36;;;;;;;30.90;21.50;;;;;;;;;;5084969;28;20199;-78
2021/12/03 02:15:04;;;;;;;31.38;21.17;;;;;;;;;;5076006;28;20201;-77
2021/12/03 02:17:32;;;;;;;31.48;19.55;;;;;;;;;;5081554;28;20681;-75
2021/12/03 02:19:59;;;;;;;32.22;19.27;;;;;;;;;;5088955;28;20219;-77
2021/12/03 02:22:28;;;;;;;32.60;20.45;;;;;;;;;;5079778;28;20202;-74
2021/12/03 02:24:55;;;;;;;31.17;19.80;;;;;;;;;;5085074;28;20194;-78
2021/12/03 02:27:22;;;;;;;34.75;20.88;;;;;;;;;;5087703;28;20209;-78
2021/12/03 02:29:49;;;;;;;31.45;19.65;;;;;;;;;;5085344;28;20196;-79
2021/12/03 02:32:17;;;;;;;30.15;19.40;;;;;;;;;;5086091;28;20189;-79
2021/12/03 02:34:44;;;;;;;32.45;20.00;;;;;;;;;;5089049;28;20216;-77
2021/12/03 02:37:11;;;;;;;32.33;19.95;;;;;;;;;;5082572;28;20213;-76
2021/12/03 02:39:39;;;;;;;30.27;19.83;;;;;;;;;;5087625;28;20204;-75
2021/12/03 02:42:07;;;;;;;31.98;20.60;;;;;;;;;;5091733;28;20198;-77
2021/12/03 02:44:34;;;;;;;36.17;19.98;;;;;;;;;;5092695;28;20207;-77
2021/12/03 02:47:01;;;;;;;29.45;18.02;;;;;;;;;;5090303;28;20213;-77
2021/12/03 02:49:29;;;;;;;32.63;20.25;;;;;;;;;;5090043;28;20223;-78
2021/12/03 02:51:56;;;;;;;26.30;17.40;;;;;;;;;;5080829;28;20208;-75
2021/12/03 02:54:23;;;;;;;26.75;18.45;;;;;;;;;;5087812;28;20186;-77
2021/12/03 02:56:51;;;;;;;28.67;18.67;;;;;;;;;;5088510;28;20217;-75
2021/12/03 02:59:19;;;;;;;34.55;17.50;;;;;;;;;;5092112;28;20232;-76
2021/12/03 03:01:46;;;;;;;26.48;17.48;;;;;;;;;;5090545;28;20186;-78
2021/12/03 03:04:13;;;;;;;27.85;16.38;;;;;;;;;;5090407;28;20557;-74
2021/12/03 03:06:41;;;;;;;24.70;15.30;;;;;;;;;;5085252;28;20573;-77
2021/12/03 03:09:11;;;;;;;27.50;15.85;;;;;;;;;;5087396;28;20698;-79
2021/12/03 03:11:38;;;;;;;24.60;14.73;;;;;;;;;;5087558;28;20190;-79
2021/12/03 03:14:07;;;;;;;28.10;15.27;;;;;;;;;;5092524;28;20185;-77
2021/12/03 03:16:34;;;;;;;24.38;15.18;;;;;;;;;;5091721;28;20226;-78
2021/12/03 03:19:09;;;;;;;24.98;15.38;;;;;;;;;;5088303;28;20197;-74
2021/12/03 03:21:36;;;;;;;20.95;14.45;;;;;;;;;;5074197;28;20217;-79
2021/12/03 03:24:04;;;;;;;20.90;12.77;;;;;;;;;;5086225;28;20197;-79
2021/12/03 03:26:31;;;;;;;22.88;14.70;;;;;;;;;;5088396;28;20186;-77
2021/12/03 03:28:58;;;;;;;20.50;13.55;;;;;;;;;;5091379;28;20232;-78
2021/12/03 03:31:27;;;;;;;21.20;14.30;;;;;;;;;;5091088;28;20190;-78
2021/12/03 03:33:54;;;;;;;18.52;12.98;;;;;;;;;;5091667;28;20201;-78
2021/12/03 03:36:21;;;;;;;20.52;13.40;;;;;;;;;;5092094;28;20189;-77
2021/12/03 03:38:48;;;;;;;19.65;11.82;;;;;;;;;;5090893;28;20292;-79
2021/12/03 03:41:16;;;;;;;19.85;12.68;;;;;;;;;;5094037;28;20197;-79
2021/12/03 03:43:43;;;;;;;22.50;13.52;;;;;;;;;;5091973;28;20196;-78
2021/12/03 03:46:10;;;;;;;18.65;13.30;;;;;;;;;;5086061;28;20200;-80
2021/12/03 03:48:39;;;;;;;23.60;12.63;;;;;;;;;;5086718;28;20225;-80
2021/12/03 03:51:06;;;;;;;19.55;11.30;;;;;;;;;;5087029;28;20208;-80
2021/12/03 03:53:33;;;;;;;18.90;11.75;;;;;;;;;;5089294;28;20225;-76
2021/12/03 03:56:00;;;;;;;24.02;12.00;;;;;;;;;;5091685;28;20216;-77
2021/12/03 03:58:27;;;;;;;17.95;11.00;;;;;;;;;;5091806;28;20224;-78
2021/12/03 04:00:54;;;;;;;19.45;11.23;;;;;;;;;;5072966;28;20229;-76
2021/12/03 04:03:22;;;;;;;18.45;12.07;;;;;;;;;;5091435;28;20197;-78
2021/12/03 04:05:50;;;;;;;21.75;13.02;;;;;;;;;;5088840;28;20282;-78
2021/12/03 04:08:17;;;;;;;21.92;12.95;;;;;;;;;;5088629;28;20227;-77
2021/12/03 04:10:46;;;;;;;18.98;11.45;;;;;;;;;;5086252;28;20527;-78
2021/12/03 04:13:13;;;;;;;21.90;12.35;;;;;;;;;;5087429;28;20277;-77
2021/12/03 04:15:42;;;;;;;21.75;12.57;;;;;;;;;;5090839;28;20194;-76
2021/12/03 04:18:09;;;;;;;20.90;12.63;;;;;;;;;;5080083;28;20206;-79
2021/12/03 04:20:36;;;;;;;19.17;11.63;;;;;;;;;;5071278;28;20663;-81
2021/12/03 04:23:05;;;;;;;17.67;11.10;;;;;;;;;;5085519;28;20658;-80
2021/12/03 04:25:33;;;;;;;16.08;10.13;;;;;;;;;;5085174;28;20675;-80
2021/12/03 04:28:00;;;;;;;18.52;10.50;;;;;;;;;;5089713;28;20201;-75
2021/12/03 04:30:28;;;;;;;13.95;10.65;;;;;;;;;;5089116;28;20186;-78
2021/12/03 04:32:56;;;;;;;13.25;9.90;;;;;;;;;;5089116;28;20224;-81
2021/12/03 04:35:25;;;;;;;15.18;9.55;;;;;;;;;;5088240;28;20654;-80
2021/12/03 04:37:53;;;;;;;13.65;10.27;;;;;;;;;;5087508;28;20228;-79
2021/12/03 04:40:22;;;;;;;13.32;9.40;;;;;;;;;;5084063;28;20197;-75
2021/12/03 04:42:49;;;;;;;16.85;9.35;;;;;;;;;;5068303;28;20198;-80
2021/12/03 04:45:18;;;;;;;15.38;9.00;;;;;;;;;;5069565;28;20203;-76
2021/12/03 04:47:46;;;;;;;13.57;9.65;;;;;;;;;;5078038;28;20613;-75
2021/12/03 04:50:14;;;;;;;16.85;9.93;;;;;;;;;;5088285;28;20590;-76
2021/12/03 04:52:41;;;;;;;15.43;8.60;;;;;;;;;;5076726;28;20557;-79
2021/12/03 04:55:09;;;;;;;12.52;8.43;;;;;;;;;;5084490;28;20189;-77
2021/12/03 04:57:37;;;;;;;15.50;8.02;;;;;;;;;;5085367;28;20227;-76
2021/12/03 05:00:06;;;;;;;10.63;7.55;;;;;;;;;;5088029;28;20237;-77
2021/12/03 05:02:33;;;;;;;10.82;7.80;;;;;;;;;;5089702;28;20197;-79
2021/12/03 05:05:03;;;;;;;13.27;8.70;;;;;;;;;;5086455;28;20690;-75
2021/12/03 05:07:42;;;;;;;14.52;9.00;;;;;;;;;;5083556;28;20222;-76
2021/12/03 05:10:10;;;;;;;12.07;7.80;;;;;;;;;;5083742;28;20314;-75
2021/12/03 05:12:39;;;;;;;15.63;8.95;;;;;;;;;;5085911;28;20200;-78
2021/12/03 05:15:06;;;;;;;13.05;8.15;;;;;;;;;;5091034;28;20659;-75
2021/12/03 05:17:33;;;;;;;9.48;6.70;;;;;;;;;;5090125;28;20212;-82
2021/12/03 05:20:01;;;;;;;15.30;7.70;;;;;;;;;;5088006;28;20549;-79
2021/12/03 05:22:28;;;;;;;14.85;7.97;;;;;;;;;;5087713;28;20646;-75
2021/12/03 05:24:55;;;;;;;10.95;7.20;;;;;;;;;;5078565;28;20205;-75
2021/12/03 05:27:22;;;;;;;9.60;6.75;;;;;;;;;;5085301;28;20228;-77
2021/12/03 05:29:51;;;;;;;13.25;7.32;;;;;;;;;;5087303;28;20229;-77
2021/12/03 05:32:20;;;;;;;11.90;6.90;;;;;;;;;;5089415;28;20193;-80
2021/12/03 05:34:47;;;;;;;9.80;7.05;;;;;;;;;;5087991;28;20247;-75
2021/12/03 05:37:14;;;;;;;14.15;7.78;;;;;;;;;;5089265;28;20213;-79
2021/12/03 05:39:41;;;;;;;12.95;7.75;;;;;;;;;;5090678;28;20193;-76
2021/12/03 05:42:09;;;;;;;9.75;6.80;;;;;;;;;;5090855;28;20195;-76
2021/12/03 05:44:36;;;;;;;12.23;6.40;;;;;;;;;;5091560;28;20215;-76
2021/12/03 05:47:05;;;;;;;9.90;6.70;;;;;;;;;;5079000;28;20236;-80
2021/12/03 05:49:33;;;;;;;12.23;6.40;;;;;;;;;;5085332;28;20221;-76
2021/12/03 05:52:00;;;;;;;11.90;6.78;;;;;;;;;;5085544;28;20190;-75
2021/12/03 05:54:28;;;;;;;10.48;6.70;;;;;;;;;;5087220;28;20674;-77
2021/12/03 05:56:55;;;;;;;13.32;6.25;;;;;;;;;;5089154;28;20228;-80
2021/12/03 05:59:22;;;;;;;9.15;5.00;;;;;;;;;;5089663;28;20587;-76
2021/12/03 06:01:49;;;;;;;8.70;5.43;;;;;;;;;;5076141;28;20559;-77
2021/12/03 06:04:18;;;;;;;9.35;6.13;;;;;;;;;;5081154;28;20558;-75
2021/12/03 06:06:45;;;;;;;11.63;5.55;;;;;;;;;;5091291;28;20220;-77
2021/12/03 06:09:12;;;;;;;9.07;6.00;;;;;;;;;;5087713;28;20225;-79
2021/12/03 06:11:40;;;;;;;13.18;6.30;;;;;;;;;;5084636;28;20185;-76
2021/12/03 06:14:07;;;;;;;7.50;5.43;;;;;;;;;;5072658;28;20559;-76
2021/12/03 06:16:34;;;;;;;12.02;6.10;;;;;;;;;;5068783;28;20544;-79
2021/12/03 06:19:01;;;;;;;9.48;7.25;;;;;;;;;;5078752;28;20193;-76
2021/12/03 06:21:30;;;;;;;8.57;5.20;;;;;;;;;;5090117;28;20201;-79
2021/12/03 06:23:57;;;;;;;6.80;4.82;;;;;;;;;;5080210;28;20216;-78
2021/12/03 06:26:24;;;;;;;9.77;6.07;;;;;;;;;;5083472;28;20501;-75
2021/12/03 06:28:51;;;;;;;7.30;4.90;;;;;;;;;;5085961;28;20213;-75
2021/12/03 06:31:18;;;;;;;10.50;4.93;;;;;;;;;;5086272;28;20378;-77
2021/12/03 06:33:45;;;;;;;7.65;5.22;;;;;;;;;;5088084;28;20193;-76
2021/12/03 06:36:13;;;;;;;10.07;5.75;;;;;;;;;;5081469;28;20256;-79
2021/12/03 06:38:42;;;;;;;9.85;5.40;;;;;;;;;;5086963;28;20213;-77
2021/12/03 06:41:09;;;;;;;12.45;6.00;;;;;;;;;;5078938;28;20185;-79
2021/12/03 06:43:36;;;;;;;13.02;7.30;;;;;;;;;;5084108;28;20181;-76
2021/12/03 06:46:04;;;;;;;13.18;5.45;;;;;;;;;;5085970;28;20234;-80
2021/12/03 06:48:31;;;;;;;15.13;6.13;;;;;;;;;;5083050;28;20205;-77
2021/12/03 06:50:58;;;;;;;12.93;6.07;;;;;;;;;;5088573;28;20197;-76
2021/12/03 06:53:28;;;;;;;9.95;6.65;;;;;;;;;;5086760;28;20394;-75
2021/12/03 06:56:04;;;;;;;11.15;6.47;;;;;;;;;;5078297;28;20851;-77
2021/12/03 06:58:31;;;;;;;10.23;6.22;;;;;;;;;;5087495;28;20205;-80
2021/12/03 07:00:59;;;;;;;10.52;6.60;;;;;;;;;;5085266;28;20235;-78
2021/12/03 07:03:27;;;;;;;16.80;7.45;;;;;;;;;;5087398;28;20197;-80
2021/12/03 07:05:54;;;;;;;10.98;6.10;;;;;;;;;;5088707;28;20314;-79
2021/12/03 07:08:21;;;;;;;9.52;5.95;;;;;;;;;;5086561;28;20217;-78
2021/12/03 07:10:48;;;;;;;11.63;6.75;;;;;;;;;;5084587;28;20236;-77
2021/12/03 07:13:17;;;;;;;11.55;6.68;;;;;;;;;;5084101;28;20197;-76
2021/12/03 07:15:44;;;;;;;13.05;5.65;;;;;;;;;;5086458;28;20529;-78
2021/12/03 07:18:11;;;;;;;10.32;6.82;;;;;;;;;;5088253;28;20213;-81
2021/12/03 07:20:38;;;;;;;10.02;7.00;;;;;;;;;;5086419;28;20193;-80
2021/12/03 07:23:05;;;;;;;11.88;6.10;;;;;;;;;;5086542;28;20193;-78
2021/12/03 07:25:33;;;;;;;11.32;7.13;;;;;;;;;;5087362;28;20193;-77
2021/12/03 07:28:00;;;;;;;11.43;5.97;;;;;;;;;;5086960;28;20308;-75
2021/12/03 07:30:31;;;;;;;12.00;6.93;;;;;;;;;;5078427;28;20225;-76
2021/12/03 07:32:58;;;;;;;12.55;6.43;;;;;;;;;;5076948;28;20643;-78
2021/12/03 07:35:25;;;;;;;13.18;5.90;;;;;;;;;;5080118;28;20201;-78
2021/12/03 07:37:52;;;;;;;15.10;6.80;;;;;;;;;;5071441;28;20218;-77
2021/12/03 07:40:20;;;;;;;8.63;5.20;;;;;;;;;;5072396;28;20292;-75
2021/12/03 07:42:47;;;;;;;6.97;5.00;;;;;;;;;;5073512;28;20190;-74
2021/12/03 07:45:16;;;;;;;15.02;5.40;;;;;;;;;;5074594;28;20201;-76
2021/12/03 07:47:45;;;;;;;8.95;5.65;;;;;;;;;;5089878;28;20213;-75
2021/12/03 07:50:12;;;;;;;15.85;6.78;;;;;;;;;;5087719;28;20217;-75
2021/12/03 07:52:39;;;;;;;10.23;5.72;;;;;;;;;;5089268;28;20288;-77
2021/12/03 07:55:07;;;;;;;12.98;5.40;;;;;;;;;;5091565;28;20197;-78
2021/12/03 07:57:35;;;;;;;13.70;6.28;;;;;;;;;;5090405;28;20213;-79
2021/12/03 08:00:02;;;;;;;11.85;5.90;;;;;;;;;;5091469;28;20227;-78
2021/12/03 08:02:29;;;;;;;11.48;5.50;;;;;;;;;;5080179;28;20208;-78
2021/12/03 08:04:57;;;;;;;11.93;4.95;;;;;;;;;;5081456;28;20186;-78
2021/12/03 08:07:25;;;;;;;17.00;5.45;;;;;;;;;;5093195;28;20210;-78
2021/12/03 08:09:52;;;;;;;14.18;5.20;;;;;;;;;;5086631;28;20673;-79
2021/12/03 08:12:20;;;;;;;9.07;5.43;;;;;;;;;;5086904;28;20198;-78
2021/12/03 08:14:47;;;;;;;11.20;4.85;;;;;;;;;;5078482;28;20595;-79
2021/12/03 08:17:14;;;;;;;9.20;5.07;;;;;;;;;;5090376;28;20221;-74
2021/12/03 08:19:41;;;;;;;10.20;3.72;;;;;;;;;;5088631;28;20193;-75
2021/12/03 08:22:10;;;;;;;8.70;3.90;;;;;;;;;;5090116;28;21035;-74
2021/12/03 08:24:37;;;;;;;5.20;3.40;;;;;;;;;;5076568;28;20677;-75
2021/12/03 08:27:04;;;;;;;9.25;3.70;;;;;;;;;;5085832;28;21538;-74
2021/12/03 08:29:32;;;;;;;6.47;3.78;;;;;;;;;;5086361;28;20567;-74
2021/12/03 08:31:59;;;;;;;5.43;3.20;;;;;;;;;;5088836;28;20643;-75
2021/12/03 08:34:26;;;;;;;4.03;2.95;;;;;;;;;;5081133;28;20196;-75
2021/12/03 08:36:53;;;;;;;4.47;2.90;;;;;;;;;;5070101;28;20699;-74
2021/12/03 08:39:22;;;;;;;7.45;3.45;;;;;;;;;;5076127;28;20201;-76
2021/12/03 08:41:49;;;;;;;4.03;3.33;;;;;;;;;;5072353;28;20200;-74
2021/12/03 08:44:16;;;;;;;10.63;3.83;;;;;;;;;;5072698;28;20198;-73
2021/12/03 08:46:44;;;;;;;10.57;3.78;;;;;;;;;;5075959;28;20214;-74
2021/12/03 08:49:15;;;;;;;8.55;4.60;;;;;;;;;;5082612;28;20196;-76
2021/12/03 08:51:58;;;;;;;14.05;4.28;;;;;;;;;;5087394;28;20204;-74
2021/12/03 08:57:08;;;;;;;5.72;3.63;;;;;;;;;;5073663;28;20208;-76
2021/12/03 08:59:35;;;;;;;5.82;3.17;;;;;;;;;;5083753;28;20221;-75
2021/12/03 09:02:02;;;;;;;4.18;2.97;;;;;;;;;;5084775;28;20671;-74
2021/12/03 09:04:29;;;;;;;10.88;3.90;;;;;;;;;;5071670;28;20190;-73
2021/12/03 09:06:57;;;;;;;9.00;3.67;;;;;;;;;;5075091;28;20205;-73
2021/12/03 09:09:25;;;;;;;10.45;3.42;;;;;;;;;;5087788;28;20208;-75
2021/12/03 09:11:53;;;;;;;6.50;4.10;;;;;;;;;;5082829;28;21752;-75
2021/12/03 09:14:25;;;;;;;6.30;3.40;;;;;;;;;;5084861;28;20239;-76
2021/12/03 09:16:59;;;;;;;6.72;3.40;;;;;;;;;;5085365;28;20743;-75
2021/12/03 09:19:30;;;;;;;10.00;3.67;;;;;;;;;;5089964;28;20200;-76
2021/12/03 09:21:58;;;;;;;7.90;2.67;;;;;;;;;;5089213;28;20185;-73
2021/12/03 09:24:32;;;;;;;11.82;4.25;;;;;;;;;;5069883;28;20525;-75
2021/12/03 09:27:00;;;;;;;5.13;2.92;;;;;;;;;;5090704;28;20221;-75
2021/12/03 09:29:30;;;;;;;7.55;3.00;;;;;;;;;;5083726;28;20189;-73
2021/12/03 09:31:58;;;;;;;7.88;3.33;;;;;;;;;;5082668;28;20551;-74
2021/12/03 09:34:28;;;;;;;9.52;2.65;;;;;;;;;;5067687;28;20210;-76
2021/12/03 09:36:55;;;;;;;13.13;2.75;;;;;;;;;;5086572;28;20209;-76
2021/12/03 09:39:23;;;;;;;8.88;3.30;;;;;;;;;;5089731;28;20288;-75
2021/12/03 09:41:51;;;;;;;11.73;3.22;;;;;;;;;;5082486;28;20197;-75
2021/12/03 09:44:19;;;;;;;3.40;2.80;;;;;;;;;;5077631;28;20201;-76
2021/12/03 09:46:47;;;;;;;9.88;3.80;;;;;;;;;;5084783;28;20214;-74
2021/12/03 09:54:40;;;;;;;5.03;2.65;;;;;;;;;;5086873;28;20665;-74
2021/12/03 09:57:10;;;;;;;8.70;3.00;;;;;;;;;;5082397;28;20279;-74
2021/12/03 10:02:30;;;;;;;8.70;3.10;;;;;;;;;;5085170;28;20212;-76
2021/12/03 10:10:57;;;;;;;6.65;3.13;;;;;;;;;;5074369;28;20760;-76
2021/12/03 10:13:22;;;;;;;14.57;3.60;;;;;;;;;;5072638;28;20209;-76
2021/12/03 10:16:00;;;;;;;6.70;2.70;;;;;;;;;;5083086;28;20291;-76
2021/12/03 10:18:41;;;;;;;6.57;2.70;;;;;;;;;;5086147;28;20213;-79
2021/12/03 10:21:17;;;;;;;9.45;3.45;;;;;;;;;;5079502;28;20657;-79
2021/12/03 10:29:14;;;;;;;14.82;3.20;;;;;;;;;;5048789;28;20577;-75
2021/12/03 10:32:16;;;;;;;9.40;3.33;;;;;;;;;;5062432;28;20300;-76
2021/12/03 10:35:06;;;;;;;9.70;4.20;;;;;;;;;;5046025;28;20509;-76
2021/12/03 10:37:53;;;;;;;11.40;4.20;;;;;;;;;;5030417;28;20253;-77
2021/12/03 10:40:30;;;;;;;5.10;3.08;;;;;;;;;;5050220;28;20802;-77
2021/12/03 10:43:20;;;;;;;6.13;3.13;;;;;;;;;;5047708;28;20244;-78
2021/12/03 10:46:05;;;;;;;7.80;3.65;;;;;;;;;;5051899;28;20194;-77
2021/12/03 10:48:41;;;;;;;8.07;3.63;;;;;;;;;;5062534;28;20206;-82
2021/12/03 10:51:29;;;;;;;10.45;3.38;;;;;;;;;;5067163;28;20259;-76
2021/12/03 10:54:04;;;;;;;10.05;4.40;;;;;;;;;;5061141;28;20202;-77
2021/12/03 10:56:43;;;;;;;12.07;3.80;;;;;;;;;;5065804;28;20217;-79
2021/12/03 13:13:52;;;;;;;6.43;3.33;;;;;;;;;;5126696;28;20220;-75
2021/12/03 13:22:20;;;;;;;9.65;3.63;;;;;;;;;;5136787;27;20198;-75
2021/12/03 14:03:08;;;;;;;6.20;2.53;;;;;;;;;;5131627;27;20560;-74
2021/12/03 14:38:39;;;;;;;3.75;2.50;;;;;;;;;;5088074;28;20220;-73
2021/12/03 14:41:21;;;;;;;5.63;2.83;;;;;;;;;;5114702;27;20208;-74
2021/12/03 14:44:06;;;;;;;7.07;3.30;;;;;;;;;;5104139;27;20188;-74
2021/12/03 14:46:55;;;;;;;2.60;2.40;;;;;;;;;;5114251;27;20595;-73
2021/12/03 14:49:42;;;;;;;4.15;2.45;;;;;;;;;;5103186;28;20595;-75
2021/12/03 14:52:16;;;;;;;5.00;3.72;;;;;;;;;;5105686;28;20546;-74
2021/12/03 14:54:54;;;;;;;5.15;2.78;;;;;;;;;;5094551;28;20737;-76
2021/12/03 14:57:31;;;;;;;2.60;2.22;;;;;;;;;;5089974;28;20222;-77
2021/12/03 15:00:08;;;;;;;5.63;2.90;;;;;;;;;;5123480;27;20551;-75
2021/12/03 15:02:54;;;;;;;3.90;2.83;;;;;;;;;;5132566;27;20192;-74
2021/12/03 15:05:36;;;;;;;4.03;2.65;;;;;;;;;;5137217;27;20652;-73
2021/12/03 15:08:05;;;;;;;3.17;2.60;;;;;;;;;;5129602;27;20212;-73
2021/12/03 15:10:45;;;;;;;4.93;2.90;;;;;;;;;;5127666;27;20184;-74
2021/12/03 15:13:28;;;;;;;5.88;2.60;;;;;;;;;;5116891;27;20298;-73
2021/12/03 15:19:04;;;;;;;7.28;2.47;;;;;;;;;;5127338;27;20511;-75
2021/12/03 15:29:56;;;;;;;3.97;2.63;;;;;;;;;;5102395;28;20242;-73
2021/12/03 15:32:31;;;;;;;6.90;2.40;;;;;;;;;;5113331;27;20188;-73
2021/12/03 15:35:06;;;;;;;3.83;2.30;;;;;;;;;;5126648;27;20336;-74
2021/12/03 15:37:49;;;;;;;4.75;2.55;;;;;;;;;;5104631;28;20223;-73
2021/12/03 15:40:25;;;;;;;4.93;2.90;;;;;;;;;;5106655;28;20225;-76
2021/12/03 15:56:38;;;;;;;4.82;2.67;;;;;;;;;;5112866;28;20205;-75
2021/12/03 16:04:30;;;;;;;7.45;2.90;;;;;;;;;;5104763;28;20189;-75
2021/12/03 16:07:13;;;;;;;6.20;2.60;;;;;;;;;;5100008;28;20232;-74
2021/12/03 16:10:03;;;;;;;4.72;2.50;;;;;;;;;;5098811;28;20220;-76
2021/12/03 16:12:43;;;;;;;3.55;2.65;;;;;;;;;;5095190;28;21532;-73
2021/12/03 16:15:23;;;;;;;4.07;2.70;;;;;;;;;;5097102;28;20710;-74
2021/12/03 16:18:24;;;;;;;6.25;2.78;;;;;;;;;;5093215;28;20574;-79
2021/12/03 16:21:02;;;;;;;6.15;2.83;;;;;;;;;;5086553;28;20205;-76
2021/12/03 16:23:44;;;;;;;3.88;2.55;;;;;;;;;;5082342;28;20197;-76
2021/12/03 16:26:22;;;;;;;5.40;2.63;;;;;;;;;;5090125;28;20207;-75
2021/12/03 16:45:15;;;;;;;3.55;2.75;;;;;;;;;;5088110;28;20269;-75
2021/12/03 16:53:05;;;;;;;4.80;3.13;;;;;;;;;;5108168;28;20242;-76
2021/12/03 16:55:33;;;;;;;3.67;2.78;;;;;;;;;;5108312;28;20690;-74
2021/12/03 16:58:01;;;;;;;3.78;2.55;;;;;;;;;;5109346;28;20271;-76
2021/12/03 17:00:34;;;;;;;6.03;2.53;;;;;;;;;;5094153;28;20556;-75
2021/12/03 17:03:06;;;;;;;6.68;2.95;;;;;;;;;;5093045;28;20193;-74
2021/12/03 17:05:57;;;;;;;3.80;2.80;;;;;;;;;;5108239;28;20189;-73
2021/12/03 17:08:35;;;;;;;3.65;2.75;;;;;;;;;;5088121;28;20631;-75
2021/12/03 17:13:56;;;;;;;3.75;2.70;;;;;;;;;;5088553;28;20193;-74
2021/12/03 17:16:47;;;;;;;5.75;2.90;;;;;;;;;;5090167;28;20193;-76
2021/12/03 17:46:29;;;;;;;4.18;2.55;;;;;;;;;;5091764;28;20201;-78
2021/12/03 17:49:02;;;;;;;3.67;2.80;;;;;;;;;;5083633;28;20185;-74
2021/12/03 17:56:52;;;;;;;3.42;2.30;;;;;;;;;;5110550;28;20216;-74
2021/12/03 17:59:23;;;;;;;3.95;2.95;;;;;;;;;;5095385;28;20206;-74
2021/12/03 18:01:54;;;;;;;5.20;3.15;;;;;;;;;;5112795;28;20617;-73
2021/12/03 18:04:26;;;;;;;3.95;3.22;;;;;;;;;;5110002;28;20228;-74
2021/12/03 18:07:03;;;;;;;5.22;2.95;;;;;;;;;;5079962;28;20701;-74
2021/12/03 18:09:47;;;;;;;9.32;3.00;;;;;;;;;;5085414;28;20250;-76
2021/12/03 18:12:32;;;;;;;4.53;3.05;;;;;;;;;;5087762;28;20668;-74
2021/12/03 18:44:50;;;;;;;3.90;2.53;;;;;;;;;;5087207;28;20198;-73
2021/12/03 18:50:27;;;;;;;2.75;2.55;;;;;;;;;;5077923;28;20246;-73
2021/12/03 18:53:03;;;;;;;4.38;2.67;;;;;;;;;;5109481;28;20215;-75
2021/12/03 18:55:34;;;;;;;2.85;2.50;;;;;;;;;;5102280;28;20200;-75
2021/12/03 18:58:04;;;;;;;6.15;3.22;;;;;;;;;;5085499;28;20228;-76
2021/12/03 19:00:32;;;;;;;3.10;2.50;;;;;;;;;;5085305;28;20277;-76
2021/12/03 19:03:05;;;;;;;2.88;2.30;;;;;;;;;;5102222;28;20537;-76
2021/12/03 19:05:43;;;;;;;2.92;2.63;;;;;;;;;;5108197;28;20287;-78
2021/12/03 19:08:14;;;;;;;4.57;2.80;;;;;;;;;;5109430;28;20216;-78
2021/12/03 19:10:45;;;;;;;4.05;2.30;;;;;;;;;;5101211;28;20207;-78
2021/12/03 19:13:15;;;;;;;5.45;2.63;;;;;;;;;;5086275;28;20223;-77
2021/12/03 19:15:44;;;;;;;3.70;2.40;;;;;;;;;;5086094;28;20204;-78
2021/12/03 19:18:12;;;;;;;3.70;2.78;;;;;;;;;;5089004;28;21214;-79
2021/12/03 19:20:42;;;;;;;3.90;2.55;;;;;;;;;;5086361;28;20189;-75
2021/12/03 19:23:09;;;;;;;3.28;2.42;;;;;;;;;;5108936;28;20641;-76
2021/12/03 19:25:36;;;;;;;2.70;2.50;;;;;;;;;;5105987;28;20201;-78
2021/12/03 19:28:04;;;;;;;4.00;2.67;;;;;;;;;;5086415;28;20217;-79
2021/12/03 19:30:31;;;;;;;2.60;2.03;;;;;;;;;;5085638;28;20558;-75
2021/12/03 19:32:59;;;;;;;2.45;1.85;;;;;;;;;;5102157;28;20197;-75
2021/12/03 19:35:28;;;;;;;2.90;2.40;;;;;;;;;;5108526;28;20212;-76
2021/12/03 19:37:57;;;;;;;2.22;2.03;;;;;;;;;;5109107;28;20223;-76
2021/12/03 19:40:28;;;;;;;3.28;1.98;;;;;;;;;;5103710;28;20583;-75
2021/12/03 19:42:59;;;;;;;2.10;1.90;;;;;;;;;;5088856;28;20204;-74
2021/12/03 19:45:32;;;;;;;3.05;2.00;;;;;;;;;;5103115;28;20708;-76
2021/12/03 19:48:02;;;;;;;3.25;2.40;;;;;;;;;;5096453;28;20550;-74
2021/12/03 19:50:40;;;;;;;3.05;2.10;;;;;;;;;;5092170;28;20220;-75
2021/12/03 19:53:13;;;;;;;2.53;1.80;;;;;;;;;;5081824;28;20217;-75
2021/12/03 19:55:41;;;;;;;3.03;1.92;;;;;;;;;;5082749;28;20198;-75
2021/12/03 19:58:08;;;;;;;2.00;1.70;;;;;;;;;;5087789;28;20693;-75
2021/12/03 20:00:36;;;;;;;3.40;1.80;;;;;;;;;;5085063;28;20190;-75
2021/12/03 20:03:03;;;;;;;2.42;1.92;;;;;;;;;;5091460;28;20218;-75
2021/12/03 20:05:32;;;;;;;2.25;1.90;;;;;;;;;;5089164;28;20647;-75
2021/12/03 20:08:01;;;;;;;2.05;1.83;;;;;;;;;;5086600;28;20206;-76
2021/12/03 20:10:29;;;;;;;4.00;2.40;;;;;;;;;;5092961;28;20194;-75
2021/12/03 20:12:57;;;;;;;1.70;1.50;;;;;;;;;;5093054;28;20554;-76
2021/12/03 20:15:29;;;;;;;1.90;1.55;;;;;;;;;;5091610;28;20246;-74
2021/12/03 20:17:58;;;;;;;2.65;1.50;;;;;;;;;;5090535;28;20235;-74
2021/12/03 20:20:26;;;;;;;2.13;1.63;;;;;;;;;;5087040;28;20288;-74
2021/12/03 20:22:59;;;;;;;3.55;2.00;;;;;;;;;;5093830;28;20192;-74
2021/12/03 20:28:09;;;;;;;2.42;1.60;;;;;;;;;;5087592;28;20582;-75
2021/12/03 20:30:44;;;;;;;1.50;1.40;;;;;;;;;;5087953;28;20225;-75
2021/12/03 20:33:34;;;;;;;2.03;1.60;;;;;;;;;;5087587;28;20250;-76
2021/12/03 20:36:21;;;;;;;3.00;1.80;;;;;;;;;;5069924;28;20190;-74
2021/12/03 20:38:52;;;;;;;3.38;1.48;;;;;;;;;;5073212;28;20823;-74
2021/12/03 20:41:29;;;;;;;2.55;1.70;;;;;;;;;;5100245;28;20663;-75
2021/12/03 20:44:05;;;;;;;2.55;2.08;;;;;;;;;;5091192;28;21418;-74
2021/12/03 20:46:44;;;;;;;2.78;1.80;;;;;;;;;;5084821;28;20224;-75